sensor_id;sensor_type;location;lat;lon;timestamp;pressure;altitude;pressure_sealevel;temperature;humidity
36520;BME280;40269;46.742;9.778;2023-01-26T00:00:45;85440.84;;;-13.40;48.30
36520;BME280;40269;46.742;9.778;2023-01-26T00:03:12;85436.16;;;-12.15;45.92
36520;BME280;40269;46.742;9.778;2023-01-26T00:05:40;85431.89;;;-10.72;44.19
36520;BME280;40269;46.742;9.778;2023-01-26T00:08:07;85431.73;;;-10.27;42.03
36520;BME280;40269;46.742;9.778;2023-01-26T00:10:35;85428.64;;;-10.64;42.11
36520;BME280;40269;46.742;9.778;2023-01-26T00:13:02;85427.35;;;-8.53;38.64
36520;BME280;40269;46.742;9.778;2023-01-26T00:15:31;85424.66;;;-11.35;42.25
36520;BME280;40269;46.742;9.778;2023-01-26T00:17:58;85424.32;;;-10.34;40.67
36520;BME280;40269;46.742;9.778;2023-01-26T00:20:25;85417.63;;;-10.70;40.23
36520;BME280;40269;46.742;9.778;2023-01-26T00:22:52;85415.34;;;-11.52;43.34
36520;BME280;40269;46.742;9.778;2023-01-26T00:25:19;85417.90;;;-13.42;47.98
36520;BME280;40269;46.742;9.778;2023-01-26T00:27:46;85416.39;;;-14.02;49.76
36520;BME280;40269;46.742;9.778;2023-01-26T00:30:14;85413.62;;;-13.29;49.94
36520;BME280;40269;46.742;9.778;2023-01-26T00:32:42;85411.54;;;-13.37;49.11
36520;BME280;40269;46.742;9.778;2023-01-26T00:35:09;85406.02;;;-12.14;46.00
36520;BME280;40269;46.742;9.778;2023-01-26T00:37:36;85412.01;;;-14.54;53.41
36520;BME280;40269;46.742;9.778;2023-01-26T00:40:04;85408.62;;;-15.27;55.07
36520;BME280;40269;46.742;9.778;2023-01-26T00:42:31;85405.77;;;-14.00;52.50
36520;BME280;40269;46.742;9.778;2023-01-26T00:44:58;85399.70;;;-11.78;46.23
36520;BME280;40269;46.742;9.778;2023-01-26T00:47:26;85395.98;;;-10.97;44.46
36520;BME280;40269;46.742;9.778;2023-01-26T00:49:53;85388.52;;;-10.14;42.31
36520;BME280;40269;46.742;9.778;2023-01-26T00:52:20;85380.78;;;-10.12;40.68
36520;BME280;40269;46.742;9.778;2023-01-26T00:54:47;85379.92;;;-9.78;39.56
36520;BME280;40269;46.742;9.778;2023-01-26T00:57:14;85382.34;;;-12.07;44.57
36520;BME280;40269;46.742;9.778;2023-01-26T00:59:42;85378.75;;;-11.66;44.06
36520;BME280;40269;46.742;9.778;2023-01-26T01:02:09;85381.60;;;-13.69;48.37
36520;BME280;40269;46.742;9.778;2023-01-26T01:04:36;85382.05;;;-14.91;53.00
36520;BME280;40269;46.742;9.778;2023-01-26T01:07:03;85380.47;;;-14.51;53.23
36520;BME280;40269;46.742;9.778;2023-01-26T01:09:30;85375.41;;;-13.36;49.91
36520;BME280;40269;46.742;9.778;2023-01-26T01:11:58;85369.68;;;-12.29;46.10
36520;BME280;40269;46.742;9.778;2023-01-26T01:14:25;85372.89;;;-13.90;49.89
36520;BME280;40269;46.742;9.778;2023-01-26T01:16:52;85376.12;;;-14.19;50.99
36520;BME280;40269;46.742;9.778;2023-01-26T01:19:19;85375.85;;;-13.76;49.95
36520;BME280;40269;46.742;9.778;2023-01-26T01:21:46;85369.53;;;-11.96;45.67
36520;BME280;40269;46.742;9.778;2023-01-26T01:24:14;85369.46;;;-10.38;41.41
36520;BME280;40269;46.742;9.778;2023-01-26T01:26:41;85368.22;;;-9.68;39.45
36520;BME280;40269;46.742;9.778;2023-01-26T01:29:11;85369.48;;;-11.12;42.32
36520;BME280;40269;46.742;9.778;2023-01-26T01:31:39;85368.36;;;-11.79;43.38
36520;BME280;40269;46.742;9.778;2023-01-26T01:34:06;85363.94;;;-12.96;46.32
36520;BME280;40269;46.742;9.778;2023-01-26T01:36:33;85361.20;;;-11.52;43.45
36520;BME280;40269;46.742;9.778;2023-01-26T01:39:00;85359.17;;;-12.04;43.09
36520;BME280;40269;46.742;9.778;2023-01-26T01:41:27;85357.75;;;-11.40;42.54
36520;BME280;40269;46.742;9.778;2023-01-26T01:44:11;85358.07;;;-9.57;38.55
36520;BME280;40269;46.742;9.778;2023-01-26T01:46:39;85354.64;;;-11.30;40.92
36520;BME280;40269;46.742;9.778;2023-01-26T01:49:15;85351.26;;;-10.23;39.66
36520;BME280;40269;46.742;9.778;2023-01-26T01:51:48;85350.20;;;-10.41;39.95
36520;BME280;40269;46.742;9.778;2023-01-26T01:54:20;85352.30;;;-11.87;42.55
36520;BME280;40269;46.742;9.778;2023-01-26T01:56:51;85353.38;;;-13.04;44.73
36520;BME280;40269;46.742;9.778;2023-01-26T01:59:21;85352.20;;;-13.13;47.14
36520;BME280;40269;46.742;9.778;2023-01-26T02:01:50;85346.27;;;-10.64;41.93
36520;BME280;40269;46.742;9.778;2023-01-26T02:04:19;85343.57;;;-10.89;42.41
36520;BME280;40269;46.742;9.778;2023-01-26T02:06:49;85351.94;;;-14.20;47.84
36520;BME280;40269;46.742;9.778;2023-01-26T02:09:20;85345.34;;;-12.09;44.62
36520;BME280;40269;46.742;9.778;2023-01-26T02:11:48;85338.73;;;-10.78;41.03
36520;BME280;40269;46.742;9.778;2023-01-26T02:14:15;85337.04;;;-13.32;45.12
36520;BME280;40269;46.742;9.778;2023-01-26T02:16:42;85340.07;;;-14.11;47.68
36520;BME280;40269;46.742;9.778;2023-01-26T02:19:15;85335.61;;;-13.91;48.54
36520;BME280;40269;46.742;9.778;2023-01-26T02:21:46;85326.53;;;-13.47;46.23
36520;BME280;40269;46.742;9.778;2023-01-26T02:24:19;85324.66;;;-12.77;45.91
36520;BME280;40269;46.742;9.778;2023-01-26T02:26:48;85324.63;;;-12.91;45.54
36520;BME280;40269;46.742;9.778;2023-01-26T02:29:15;85317.30;;;-12.97;45.09
36520;BME280;40269;46.742;9.778;2023-01-26T02:31:42;85321.44;;;-14.28;48.37
36520;BME280;40269;46.742;9.778;2023-01-26T02:34:09;85316.28;;;-13.53;46.73
36520;BME280;40269;46.742;9.778;2023-01-26T02:36:36;85314.20;;;-14.60;49.13
36520;BME280;40269;46.742;9.778;2023-01-26T02:39:19;85310.23;;;-13.82;48.26
36520;BME280;40269;46.742;9.778;2023-01-26T02:41:49;85308.29;;;-14.13;48.41
36520;BME280;40269;46.742;9.778;2023-01-26T02:44:16;85303.46;;;-12.41;44.87
36520;BME280;40269;46.742;9.778;2023-01-26T02:46:44;85298.65;;;-11.00;42.03
36520;BME280;40269;46.742;9.778;2023-01-26T02:49:11;85297.76;;;-13.89;46.22
36520;BME280;40269;46.742;9.778;2023-01-26T02:51:38;85290.43;;;-11.11;41.82
36520;BME280;40269;46.742;9.778;2023-01-26T02:54:05;85286.03;;;-10.29;40.45
36520;BME280;40269;46.742;9.778;2023-01-26T02:56:33;85285.78;;;-11.46;41.19
36520;BME280;40269;46.742;9.778;2023-01-26T02:59:00;85281.88;;;-12.56;42.49
36520;BME280;40269;46.742;9.778;2023-01-26T03:01:26;85282.99;;;-10.80;39.76
36520;BME280;40269;46.742;9.778;2023-01-26T03:03:54;85282.45;;;-11.10;40.62
36520;BME280;40269;46.742;9.778;2023-01-26T03:06:21;85286.08;;;-12.25;43.55
36520;BME280;40269;46.742;9.778;2023-01-26T03:08:48;85285.27;;;-12.64;42.80
36520;BME280;40269;46.742;9.778;2023-01-26T03:11:16;85282.74;;;-13.05;43.19
36520;BME280;40269;46.742;9.778;2023-01-26T03:13:43;85276.04;;;-12.04;41.62
36520;BME280;40269;46.742;9.778;2023-01-26T03:16:10;85278.38;;;-13.72;44.89
36520;BME280;40269;46.742;9.778;2023-01-26T03:18:37;85284.14;;;-14.22;46.41
36520;BME280;40269;46.742;9.778;2023-01-26T03:21:09;85277.67;;;-10.98;41.80
36520;BME280;40269;46.742;9.778;2023-01-26T03:23:37;85276.51;;;-9.56;38.26
36520;BME280;40269;46.742;9.778;2023-01-26T03:26:06;85282.84;;;-13.16;44.34
36520;BME280;40269;46.742;9.778;2023-01-26T03:28:34;85283.15;;;-13.09;44.20
36520;BME280;40269;46.742;9.778;2023-01-26T03:31:05;85291.28;;;-14.47;48.25
36520;BME280;40269;46.742;9.778;2023-01-26T03:33:32;85291.34;;;-14.02;46.36
36520;BME280;40269;46.742;9.778;2023-01-26T03:35:59;85290.94;;;-14.65;47.96
36520;BME280;40269;46.742;9.778;2023-01-26T03:38:27;85293.19;;;-15.35;49.73
36520;BME280;40269;46.742;9.778;2023-01-26T03:40:56;85294.43;;;-14.73;48.86
36520;BME280;40269;46.742;9.778;2023-01-26T03:43:24;85291.61;;;-14.75;48.10
36520;BME280;40269;46.742;9.778;2023-01-26T03:45:51;85293.39;;;-13.53;47.51
36520;BME280;40269;46.742;9.778;2023-01-26T03:48:18;85285.08;;;-12.93;44.42
36520;BME280;40269;46.742;9.778;2023-01-26T03:50:45;85286.83;;;-15.16;49.13
36520;BME280;40269;46.742;9.778;2023-01-26T03:53:14;85289.59;;;-16.17;53.97
36520;BME280;40269;46.742;9.778;2023-01-26T03:55:42;85285.84;;;-14.91;50.56
36520;BME280;40269;46.742;9.778;2023-01-26T03:58:09;85281.37;;;-12.79;45.77
36520;BME280;40269;46.742;9.778;2023-01-26T04:00:36;85275.74;;;-11.68;43.16
36520;BME280;40269;46.742;9.778;2023-01-26T04:03:04;85283.32;;;-14.98;49.09
36520;BME280;40269;46.742;9.778;2023-01-26T04:05:31;85283.40;;;-16.05;52.69
36520;BME280;40269;46.742;9.778;2023-01-26T04:08:01;85282.10;;;-13.97;47.34
36520;BME280;40269;46.742;9.778;2023-01-26T04:10:29;85279.66;;;-15.35;50.20
36520;BME280;40269;46.742;9.778;2023-01-26T04:12:56;85279.88;;;-14.55;48.39
36520;BME280;40269;46.742;9.778;2023-01-26T04:15:24;85277.14;;;-14.08;48.39
36520;BME280;40269;46.742;9.778;2023-01-26T04:17:50;85270.22;;;-12.20;44.20
36520;BME280;40269;46.742;9.778;2023-01-26T04:20:18;85268.41;;;-13.79;46.27
36520;BME280;40269;46.742;9.778;2023-01-26T04:22:45;85274.03;;;-14.64;48.80
36520;BME280;40269;46.742;9.778;2023-01-26T04:25:16;85275.34;;;-15.30;51.25
36520;BME280;40269;46.742;9.778;2023-01-26T04:27:43;85263.46;;;-11.75;43.07
36520;BME280;40269;46.742;9.778;2023-01-26T04:30:12;85257.87;;;-10.66;40.13
36520;BME280;40269;46.742;9.778;2023-01-26T04:32:39;85254.38;;;-12.07;42.93
36520;BME280;40269;46.742;9.778;2023-01-26T04:35:08;85261.14;;;-14.30;47.01
36520;BME280;40269;46.742;9.778;2023-01-26T04:37:36;85248.47;;;-13.39;45.29
36520;BME280;40269;46.742;9.778;2023-01-26T04:40:04;85246.88;;;-11.78;41.88
36520;BME280;40269;46.742;9.778;2023-01-26T04:42:31;85244.53;;;-12.46;41.86
36520;BME280;40269;46.742;9.778;2023-01-26T04:44:58;85238.32;;;-11.90;41.52
36520;BME280;40269;46.742;9.778;2023-01-26T04:47:25;85239.45;;;-12.56;42.84
36520;BME280;40269;46.742;9.778;2023-01-26T04:49:52;85239.96;;;-14.24;45.99
36520;BME280;40269;46.742;9.778;2023-01-26T04:52:19;85239.14;;;-13.36;45.87
36520;BME280;40269;46.742;9.778;2023-01-26T04:54:46;85235.27;;;-11.89;41.60
36520;BME280;40269;46.742;9.778;2023-01-26T04:57:13;85231.41;;;-12.05;42.88
36520;BME280;40269;46.742;9.778;2023-01-26T04:59:41;85231.57;;;-13.46;44.56
36520;BME280;40269;46.742;9.778;2023-01-26T05:02:08;85237.35;;;-15.21;48.93
36520;BME280;40269;46.742;9.778;2023-01-26T05:04:35;85233.12;;;-12.97;45.34
36520;BME280;40269;46.742;9.778;2023-01-26T05:07:02;85235.03;;;-12.13;43.19
36520;BME280;40269;46.742;9.778;2023-01-26T05:09:29;85235.08;;;-13.48;45.22
36520;BME280;40269;46.742;9.778;2023-01-26T05:11:56;85232.50;;;-11.67;42.07
36520;BME280;40269;46.742;9.778;2023-01-26T05:14:24;85232.14;;;-11.97;42.16
36520;BME280;40269;46.742;9.778;2023-01-26T05:16:50;85234.79;;;-13.12;43.59
36520;BME280;40269;46.742;9.778;2023-01-26T05:19:18;85233.84;;;-10.82;40.38
36520;BME280;40269;46.742;9.778;2023-01-26T05:21:45;85234.02;;;-11.30;40.22
36520;BME280;40269;46.742;9.778;2023-01-26T05:24:12;85230.22;;;-11.03;38.50
36520;BME280;40269;46.742;9.778;2023-01-26T05:26:39;85231.87;;;-11.04;38.74
36520;BME280;40269;46.742;9.778;2023-01-26T05:29:06;85233.82;;;-9.48;36.61
36520;BME280;40269;46.742;9.778;2023-01-26T05:31:34;85229.50;;;-9.87;36.94
36520;BME280;40269;46.742;9.778;2023-01-26T05:34:00;85235.82;;;-10.66;37.81
36520;BME280;40269;46.742;9.778;2023-01-26T05:36:27;85240.74;;;-14.58;45.15
36520;BME280;40269;46.742;9.778;2023-01-26T05:38:55;85238.24;;;-14.38;46.46
36520;BME280;40269;46.742;9.778;2023-01-26T05:41:22;85241.57;;;-14.24;46.06
36520;BME280;40269;46.742;9.778;2023-01-26T05:43:49;85237.09;;;-14.62;47.89
36520;BME280;40269;46.742;9.778;2023-01-26T05:46:16;85235.37;;;-13.94;46.53
36520;BME280;40269;46.742;9.778;2023-01-26T05:48:44;85233.16;;;-12.91;44.25
36520;BME280;40269;46.742;9.778;2023-01-26T05:51:11;85237.29;;;-14.15;45.80
36520;BME280;40269;46.742;9.778;2023-01-26T05:53:38;85241.52;;;-15.74;49.30
36520;BME280;40269;46.742;9.778;2023-01-26T05:56:06;85243.47;;;-15.50;49.63
36520;BME280;40269;46.742;9.778;2023-01-26T05:58:33;85242.16;;;-14.33;45.63
36520;BME280;40269;46.742;9.778;2023-01-26T06:01:03;85237.08;;;-13.81;44.36
36520;BME280;40269;46.742;9.778;2023-01-26T06:03:30;85233.94;;;-11.99;42.51
36520;BME280;40269;46.742;9.778;2023-01-26T06:05:57;85240.22;;;-14.60;47.22
36520;BME280;40269;46.742;9.778;2023-01-26T06:08:24;85239.32;;;-14.15;46.95
36520;BME280;40269;46.742;9.778;2023-01-26T06:10:51;85238.16;;;-15.33;47.98
36520;BME280;40269;46.742;9.778;2023-01-26T06:13:18;85242.13;;;-15.96;49.90
36520;BME280;40269;46.742;9.778;2023-01-26T06:15:45;85235.75;;;-14.42;46.23
36520;BME280;40269;46.742;9.778;2023-01-26T06:18:12;85235.67;;;-14.69;47.99
36520;BME280;40269;46.742;9.778;2023-01-26T06:20:39;85236.02;;;-14.94;47.41
36520;BME280;40269;46.742;9.778;2023-01-26T06:23:07;85238.26;;;-14.49;46.42
36520;BME280;40269;46.742;9.778;2023-01-26T06:25:34;85237.09;;;-14.46;46.50
36520;BME280;40269;46.742;9.778;2023-01-26T06:28:01;85237.26;;;-15.42;48.24
36520;BME280;40269;46.742;9.778;2023-01-26T06:30:29;85228.01;;;-13.75;44.38
36520;BME280;40269;46.742;9.778;2023-01-26T06:32:56;85236.13;;;-14.51;46.57
36520;BME280;40269;46.742;9.778;2023-01-26T06:35:24;85231.74;;;-15.33;48.78
36520;BME280;40269;46.742;9.778;2023-01-26T06:37:51;85229.75;;;-16.04;50.39
36520;BME280;40269;46.742;9.778;2023-01-26T06:40:18;85234.08;;;-17.30;53.29
36520;BME280;40269;46.742;9.778;2023-01-26T06:42:47;85231.50;;;-15.99;51.22
36520;BME280;40269;46.742;9.778;2023-01-26T06:45:14;85229.69;;;-13.91;46.54
36520;BME280;40269;46.742;9.778;2023-01-26T06:47:44;85227.42;;;-14.58;47.27
36520;BME280;40269;46.742;9.778;2023-01-26T06:50:11;85224.24;;;-14.20;45.27
36520;BME280;40269;46.742;9.778;2023-01-26T06:52:40;85227.83;;;-14.96;46.51
36520;BME280;40269;46.742;9.778;2023-01-26T06:55:14;85231.66;;;-16.85;51.43
36520;BME280;40269;46.742;9.778;2023-01-26T06:57:42;85230.24;;;-17.51;54.43
36520;BME280;40269;46.742;9.778;2023-01-26T07:00:11;85229.67;;;-18.17;56.94
36520;BME280;40269;46.742;9.778;2023-01-26T07:02:38;85227.13;;;-16.68;53.31
36520;BME280;40269;46.742;9.778;2023-01-26T07:05:06;85223.67;;;-16.04;51.72
36520;BME280;40269;46.742;9.778;2023-01-26T07:07:33;85223.95;;;-15.62;50.41
36520;BME280;40269;46.742;9.778;2023-01-26T07:10:00;85220.86;;;-15.35;48.90
36520;BME280;40269;46.742;9.778;2023-01-26T07:12:37;85224.46;;;-17.04;53.95
36520;BME280;40269;46.742;9.778;2023-01-26T07:15:05;85221.01;;;-14.92;48.47
36520;BME280;40269;46.742;9.778;2023-01-26T07:17:32;85223.14;;;-14.25;46.21
36520;BME280;40269;46.742;9.778;2023-01-26T07:19:59;85220.75;;;-15.63;47.97
36520;BME280;40269;46.742;9.778;2023-01-26T07:22:27;85220.45;;;-14.36;46.61
36520;BME280;40269;46.742;9.778;2023-01-26T07:24:54;85220.80;;;-14.59;45.59
36520;BME280;40269;46.742;9.778;2023-01-26T07:27:21;85215.61;;;-12.46;41.96
36520;BME280;40269;46.742;9.778;2023-01-26T07:29:49;85214.86;;;-11.71;39.50
36520;BME280;40269;46.742;9.778;2023-01-26T07:32:16;85217.10;;;-13.99;44.57
36520;BME280;40269;46.742;9.778;2023-01-26T07:34:43;85213.44;;;-13.18;42.24
36520;BME280;40269;46.742;9.778;2023-01-26T07:37:10;85220.34;;;-14.70;44.78
36520;BME280;40269;46.742;9.778;2023-01-26T07:39:38;85215.76;;;-13.83;44.49
36520;BME280;40269;46.742;9.778;2023-01-26T07:42:05;85215.57;;;-13.59;43.54
36520;BME280;40269;46.742;9.778;2023-01-26T07:44:32;85211.47;;;-11.75;40.20
36520;BME280;40269;46.742;9.778;2023-01-26T07:46:59;85211.50;;;-11.37;39.36
36520;BME280;40269;46.742;9.778;2023-01-26T07:49:26;85212.96;;;-12.70;41.18
36520;BME280;40269;46.742;9.778;2023-01-26T07:51:53;85212.55;;;-13.13;43.07
36520;BME280;40269;46.742;9.778;2023-01-26T07:54:21;85214.49;;;-11.77;40.61
36520;BME280;40269;46.742;9.778;2023-01-26T07:56:50;85214.17;;;-13.61;42.58
36520;BME280;40269;46.742;9.778;2023-01-26T07:59:18;85219.69;;;-15.84;47.86
36520;BME280;40269;46.742;9.778;2023-01-26T08:01:47;85221.85;;;-14.98;47.18
36520;BME280;40269;46.742;9.778;2023-01-26T08:04:14;85220.33;;;-14.19;45.10
36520;BME280;40269;46.742;9.778;2023-01-26T08:06:42;85216.75;;;-14.40;46.64
36520;BME280;40269;46.742;9.778;2023-01-26T08:09:09;85216.86;;;-16.49;51.10
36520;BME280;40269;46.742;9.778;2023-01-26T08:11:36;85217.07;;;-15.60;49.65
36520;BME280;40269;46.742;9.778;2023-01-26T08:14:03;85213.80;;;-15.31;48.90
36520;BME280;40269;46.742;9.778;2023-01-26T08:16:31;85205.60;;;-13.85;46.25
36520;BME280;40269;46.742;9.778;2023-01-26T08:18:58;85203.13;;;-12.79;43.28
36520;BME280;40269;46.742;9.778;2023-01-26T08:21:25;85209.21;;;-14.59;46.19
36520;BME280;40269;46.742;9.778;2023-01-26T08:23:54;85199.98;;;-12.78;43.24
36520;BME280;40269;46.742;9.778;2023-01-26T08:26:21;85202.12;;;-14.30;44.97
36520;BME280;40269;46.742;9.778;2023-01-26T08:28:49;85205.03;;;-14.70;47.03
36520;BME280;40269;46.742;9.778;2023-01-26T08:31:18;85198.63;;;-11.86;41.30
36520;BME280;40269;46.742;9.778;2023-01-26T08:33:45;85196.27;;;-10.95;38.88
36520;BME280;40269;46.742;9.778;2023-01-26T08:36:14;85201.78;;;-13.52;42.42
36520;BME280;40269;46.742;9.778;2023-01-26T08:38:41;85202.18;;;-12.09;41.24
36520;BME280;40269;46.742;9.778;2023-01-26T08:41:10;85199.40;;;-12.12;40.99
36520;BME280;40269;46.742;9.778;2023-01-26T08:43:37;85196.35;;;-10.87;38.50
36520;BME280;40269;46.742;9.778;2023-01-26T08:46:05;85192.40;;;-10.51;38.40
36520;BME280;40269;46.742;9.778;2023-01-26T08:48:32;85188.89;;;-9.73;36.51
36520;BME280;40269;46.742;9.778;2023-01-26T08:51:01;85188.96;;;-10.30;36.47
36520;BME280;40269;46.742;9.778;2023-01-26T08:53:30;85187.31;;;-11.27;37.56
36520;BME280;40269;46.742;9.778;2023-01-26T08:56:00;85187.04;;;-12.50;40.34
36520;BME280;40269;46.742;9.778;2023-01-26T08:58:27;85183.90;;;-12.53;40.15
36520;BME280;40269;46.742;9.778;2023-01-26T09:00:55;85186.41;;;-15.39;46.91
36520;BME280;40269;46.742;9.778;2023-01-26T09:03:22;85178.79;;;-12.90;43.35
36520;BME280;40269;46.742;9.778;2023-01-26T09:05:49;85175.74;;;-14.07;44.77
36520;BME280;40269;46.742;9.778;2023-01-26T09:08:16;85172.83;;;-12.41;42.07
36520;BME280;40269;46.742;9.778;2023-01-26T09:10:43;85170.84;;;-10.29;37.68
36520;BME280;40269;46.742;9.778;2023-01-26T09:13:11;85166.63;;;-9.53;36.39
36520;BME280;40269;46.742;9.778;2023-01-26T09:15:38;85156.41;;;-8.76;35.56
36520;BME280;40269;46.742;9.778;2023-01-26T09:18:05;85163.45;;;-11.38;39.36
36520;BME280;40269;46.742;9.778;2023-01-26T09:20:32;85157.26;;;-9.62;37.09
36520;BME280;40269;46.742;9.778;2023-01-26T09:22:59;85153.39;;;-8.66;35.47
36520;BME280;40269;46.742;9.778;2023-01-26T09:25:26;85153.65;;;-8.93;35.60
36520;BME280;40269;46.742;9.778;2023-01-26T09:27:54;85157.38;;;-8.77;35.44
36520;BME280;40269;46.742;9.778;2023-01-26T09:30:21;85152.59;;;-8.69;36.04
36520;BME280;40269;46.742;9.778;2023-01-26T09:32:48;85154.60;;;-8.20;34.91
36520;BME280;40269;46.742;9.778;2023-01-26T09:35:15;85159.48;;;-8.57;35.39
36520;BME280;40269;46.742;9.778;2023-01-26T09:37:42;85165.00;;;-9.60;37.24
36520;BME280;40269;46.742;9.778;2023-01-26T09:40:15;85167.49;;;-11.42;39.81
36520;BME280;40269;46.742;9.778;2023-01-26T09:42:54;85159.14;;;-7.44;37.89
36520;BME280;40269;46.742;9.778;2023-01-26T09:45:29;85155.23;;;-6.95;38.40
36520;BME280;40269;46.742;9.778;2023-01-26T09:48:09;85154.53;;;-4.54;33.47
36520;BME280;40269;46.742;9.778;2023-01-26T09:50:42;85157.68;;;-5.95;35.57
36520;BME280;40269;46.742;9.778;2023-01-26T09:53:13;85161.06;;;-5.71;36.24
36520;BME280;40269;46.742;9.778;2023-01-26T09:55:42;85154.36;;;-5.52;36.61
36520;BME280;40269;46.742;9.778;2023-01-26T09:58:13;85150.71;;;-4.22;35.49
36520;BME280;40269;46.742;9.778;2023-01-26T10:00:45;85145.36;;;-2.38;32.73
36520;BME280;40269;46.742;9.778;2023-01-26T10:03:22;85142.69;;;-3.80;32.92
36520;BME280;40269;46.742;9.778;2023-01-26T10:05:57;85138.70;;;-3.53;34.06
36520;BME280;40269;46.742;9.778;2023-01-26T10:08:26;85133.35;;;-1.49;30.52
36520;BME280;40269;46.742;9.778;2023-01-26T10:10:57;85135.65;;;-3.06;33.33
36520;BME280;40269;46.742;9.778;2023-01-26T10:13:26;85129.75;;;-3.22;31.07
36520;BME280;40269;46.742;9.778;2023-01-26T10:15:57;85132.62;;;-5.55;35.63
36520;BME280;40269;46.742;9.778;2023-01-26T10:18:27;85124.14;;;-4.34;33.05
36520;BME280;40269;46.742;9.778;2023-01-26T10:20:57;85118.38;;;-2.27;31.32
36520;BME280;40269;46.742;9.778;2023-01-26T10:23:28;85118.89;;;-3.33;31.51
36520;BME280;40269;46.742;9.778;2023-01-26T10:26:01;85115.05;;;-2.48;29.69
36520;BME280;40269;46.742;9.778;2023-01-26T10:28:33;85112.69;;;-2.55;30.25
36520;BME280;40269;46.742;9.778;2023-01-26T10:31:03;85111.73;;;-4.08;31.80
36520;BME280;40269;46.742;9.778;2023-01-26T10:33:32;85106.36;;;-2.55;29.53
36520;BME280;40269;46.742;9.778;2023-01-26T10:36:00;85105.79;;;-3.78;29.75
36520;BME280;40269;46.742;9.778;2023-01-26T10:38:44;85102.94;;;-1.32;28.75
36520;BME280;40269;46.742;9.778;2023-01-26T10:41:28;85099.13;;;-0.42;27.49
36520;BME280;40269;46.742;9.778;2023-01-26T10:43:57;85096.03;;;-0.62;27.38
36520;BME280;40269;46.742;9.778;2023-01-26T10:46:27;85094.59;;;-2.17;28.66
36520;BME280;40269;46.742;9.778;2023-01-26T10:48:56;85092.88;;;-0.60;26.63
36520;BME280;40269;46.742;9.778;2023-01-26T10:51:27;85092.43;;;-4.49;30.24
36520;BME280;40269;46.742;9.778;2023-01-26T10:54:21;85090.09;;;-2.07;29.24
36520;BME280;40269;46.742;9.778;2023-01-26T10:56:50;85089.91;;;-1.21;28.12
36520;BME280;40269;46.742;9.778;2023-01-26T10:59:25;85088.37;;;-0.05;26.17
36520;BME280;40269;46.742;9.778;2023-01-26T11:01:56;85083.04;;;0.86;25.94
36520;BME280;40269;46.742;9.778;2023-01-26T11:04:25;85084.13;;;-0.69;26.61
36520;BME280;40269;46.742;9.778;2023-01-26T11:06:52;85078.32;;;0.59;25.84
36520;BME280;40269;46.742;9.778;2023-01-26T11:09:25;85081.08;;;-2.61;30.14
36520;BME280;40269;46.742;9.778;2023-01-26T11:11:56;85072.52;;;0.07;27.14
36520;BME280;40269;46.742;9.778;2023-01-26T11:14:24;85070.35;;;3.11;25.29
36520;BME280;40269;46.742;9.778;2023-01-26T11:16:58;85067.49;;;2.73;24.46
36520;BME280;40269;46.742;9.778;2023-01-26T11:19:46;85067.59;;;3.34;23.57
36520;BME280;40269;46.742;9.778;2023-01-26T11:22:18;85060.17;;;4.29;23.10
36520;BME280;40269;46.742;9.778;2023-01-26T11:24:51;85054.27;;;5.18;21.50
36520;BME280;40269;46.742;9.778;2023-01-26T11:27:33;85051.76;;;4.83;21.82
36520;BME280;40269;46.742;9.778;2023-01-26T11:30:18;85045.13;;;5.73;21.87
36520;BME280;40269;46.742;9.778;2023-01-26T11:32:54;85038.36;;;7.83;18.89
36520;BME280;40269;46.742;9.778;2023-01-26T11:35:30;85035.20;;;6.96;20.47
36520;BME280;40269;46.742;9.778;2023-01-26T11:38:08;85026.44;;;7.66;20.30
36520;BME280;40269;46.742;9.778;2023-01-26T11:40:43;85026.46;;;7.69;21.32
36520;BME280;40269;46.742;9.778;2023-01-26T11:43:22;85026.33;;;6.45;21.59
36520;BME280;40269;46.742;9.778;2023-01-26T11:46:04;85021.35;;;7.58;22.00
36520;BME280;40269;46.742;9.778;2023-01-26T11:48:39;85019.94;;;9.75;19.02
36520;BME280;40269;46.742;9.778;2023-01-26T11:51:16;85013.97;;;10.97;17.70
36520;BME280;40269;46.742;9.778;2023-01-26T11:54:00;85009.99;;;12.87;16.68
36520;BME280;40269;46.742;9.778;2023-01-26T11:56:39;85008.21;;;11.90;17.15
36520;BME280;40269;46.742;9.778;2023-01-26T11:59:12;85004.34;;;10.77;17.64
36520;BME280;40269;46.742;9.778;2023-01-26T12:01:42;85000.15;;;11.32;15.79
36520;BME280;40269;46.742;9.778;2023-01-26T12:04:17;84999.40;;;10.42;16.63
36520;BME280;40269;46.742;9.778;2023-01-26T12:06:46;84996.53;;;9.28;15.76
36520;BME280;40269;46.742;9.778;2023-01-26T12:09:18;84990.78;;;10.27;15.44
36520;BME280;40269;46.742;9.778;2023-01-26T12:11:51;84991.16;;;5.16;18.73
36520;BME280;40269;46.742;9.778;2023-01-26T12:14:25;84993.96;;;3.50;19.06
36520;BME280;40269;46.742;9.778;2023-01-26T12:17:08;84991.35;;;3.74;20.42
36520;BME280;40269;46.742;9.778;2023-01-26T12:19:44;84990.58;;;2.65;20.17
36520;BME280;40269;46.742;9.778;2023-01-26T12:22:18;84983.23;;;3.41;22.02
36520;BME280;40269;46.742;9.778;2023-01-26T12:24:51;84979.09;;;5.05;19.06
36520;BME280;40269;46.742;9.778;2023-01-26T12:27:24;84975.62;;;5.01;19.08
36520;BME280;40269;46.742;9.778;2023-01-26T12:29:58;84969.40;;;4.74;18.07
36520;BME280;40269;46.742;9.778;2023-01-26T12:32:28;84976.22;;;3.82;18.19
36520;BME280;40269;46.742;9.778;2023-01-26T12:34:56;84975.65;;;2.32;19.40
36520;BME280;40269;46.742;9.778;2023-01-26T12:37:35;84978.45;;;1.90;20.27
36520;BME280;40269;46.742;9.778;2023-01-26T12:40:15;84973.69;;;2.47;20.59
36520;BME280;40269;46.742;9.778;2023-01-26T12:42:49;84976.99;;;0.06;22.68
36520;BME280;40269;46.742;9.778;2023-01-26T12:45:26;84971.02;;;2.40;21.41
36520;BME280;40269;46.742;9.778;2023-01-26T12:47:55;84976.50;;;2.69;21.07
36520;BME280;40269;46.742;9.778;2023-01-26T12:50:29;84974.96;;;1.09;22.74
36520;BME280;40269;46.742;9.778;2023-01-26T12:53:04;84974.80;;;1.29;22.81
36520;BME280;40269;46.742;9.778;2023-01-26T12:55:38;84972.81;;;1.04;23.01
36520;BME280;40269;46.742;9.778;2023-01-26T12:58:11;84970.30;;;2.75;22.28
36520;BME280;40269;46.742;9.778;2023-01-26T13:00:50;84970.51;;;3.01;23.52
36520;BME280;40269;46.742;9.778;2023-01-26T13:03:22;84964.57;;;2.21;22.01
36520;BME280;40269;46.742;9.778;2023-01-26T13:05:56;84966.26;;;0.93;23.69